createdAt,value
2018-05-07T00:03:29.811Z,12.40
2018-05-07T00:09:35.007Z,12.37
2018-05-07T00:15:39.440Z,12.43
2018-05-07T00:21:43.833Z,12.24
2018-05-07T00:27:48.224Z,12.46
2018-05-07T00:33:52.815Z,12.59
2018-05-07T00:39:57.358Z,12.23
2018-05-07T00:46:01.739Z,12.24
2018-05-07T00:52:06.150Z,12.24
2018-05-07T00:58:10.539Z,12.20
2018-05-07T01:04:15.071Z,12.32
2018-05-07T01:10:20.781Z,12.13
2018-05-07T01:16:25.204Z,12.15
2018-05-07T01:22:29.572Z,12.14
2018-05-07T01:28:33.939Z,12.06
2018-05-07T01:34:38.489Z,12.01
2018-05-07T01:40:42.860Z,11.96
2018-05-07T01:46:47.213Z,11.65
2018-05-07T01:52:52.523Z,11.50
2018-05-07T01:58:56.986Z,11.27
2018-05-07T02:05:01.439Z,11.17
2018-05-07T02:11:05.804Z,11.07
2018-05-07T02:17:10.176Z,11.02
2018-05-07T02:23:14.551Z,10.82
2018-05-07T02:29:18.923Z,10.71
2018-05-07T02:35:23.392Z,10.76
2018-05-07T02:41:27.755Z,10.70
2018-05-07T02:47:32.161Z,10.51
2018-05-07T02:53:36.534Z,10.53
2018-05-07T02:59:40.900Z,10.36
2018-05-07T03:05:45.270Z,10.50
2018-05-07T03:11:49.877Z,10.24
2018-05-07T03:17:54.289Z,10.20
2018-05-07T03:23:58.751Z,10.24
2018-05-07T03:30:03.115Z,10.09
2018-05-07T03:36:07.467Z,10.00
2018-05-07T03:42:11.866Z,9.86
2018-05-07T03:48:16.376Z,9.71
2018-05-07T03:54:21.070Z,9.93
2018-05-07T04:00:25.508Z,9.85
2018-05-07T04:06:29.950Z,9.61
2018-05-07T04:12:35.231Z,9.76
2018-05-07T04:25:28.895Z,10.12
2018-05-07T04:31:33.314Z,10.21
2018-05-07T04:37:37.715Z,10.29
2018-05-07T04:43:42.106Z,10.35
2018-05-07T04:49:47.269Z,10.52
2018-05-07T04:55:51.794Z,10.86
2018-05-07T05:01:56.955Z,11.13
2018-05-07T05:08:01.343Z,11.29
2018-05-07T05:14:05.803Z,11.55
2018-05-07T05:20:10.189Z,11.64
2018-05-07T05:26:14.667Z,11.82
2018-05-07T05:32:19.230Z,12.05
2018-05-07T05:38:24.629Z,12.25
2018-05-07T05:44:29.043Z,12.53
2018-05-07T05:50:34.206Z,12.76
2018-05-07T05:56:38.616Z,13.05
2018-05-07T06:02:43.866Z,13.49
2018-05-07T06:08:48.269Z,13.98
2018-05-07T06:14:53.585Z,14.37
2018-05-07T06:20:57.951Z,14.79
2018-05-07T06:27:03.135Z,14.99
2018-05-07T06:33:07.528Z,15.43
2018-05-07T06:39:12.467Z,15.80
2018-05-07T06:45:17.045Z,16.10
2018-05-07T06:51:21.710Z,16.63
2018-05-07T06:57:26.118Z,16.95
2018-05-07T07:03:30.528Z,17.51
2018-05-07T07:09:34.873Z,17.82
2018-05-07T07:15:39.251Z,18.11
2018-05-07T07:21:43.647Z,18.74
2018-05-07T07:27:48.015Z,19.20
2018-05-07T07:33:52.721Z,19.52
2018-05-07T07:39:57.058Z,19.83
2018-05-07T07:46:01.504Z,20.31
2018-05-07T07:52:05.914Z,20.34
2018-05-07T07:58:10.359Z,20.58
2018-05-07T08:04:14.818Z,20.96
2018-05-07T08:10:19.222Z,21.68
2018-05-07T08:16:23.707Z,22.16
2018-05-07T08:22:28.089Z,22.38
2018-05-07T08:28:32.490Z,22.97
2018-05-07T08:34:36.853Z,23.52
2018-05-07T08:40:41.219Z,23.90
2018-05-07T08:46:45.650Z,23.80
2018-05-07T08:52:50.918Z,23.88
2018-05-07T08:58:55.345Z,24.26
2018-05-07T09:04:59.810Z,24.59
2018-05-07T09:11:04.176Z,25.06
2018-05-07T09:17:08.591Z,25.08
2018-05-07T09:23:12.974Z,25.15
2018-05-07T09:29:17.344Z,24.96
2018-05-07T09:35:22.113Z,24.99
2018-05-07T09:41:26.629Z,25.36
2018-05-07T09:47:31.060Z,25.83
2018-05-07T09:53:35.418Z,26.60
2018-05-07T09:59:39.779Z,27.06
2018-05-07T10:05:45.028Z,26.50
2018-05-07T10:11:49.482Z,26.83
2018-05-07T10:17:53.961Z,27.58
2018-05-07T10:23:58.313Z,27.66
2018-05-07T10:30:02.663Z,28.26
2018-05-07T10:36:07.026Z,28.18
2018-05-07T10:42:11.382Z,29.07
2018-05-07T10:48:15.736Z,29.75
2018-05-07T10:54:20.308Z,28.63
2018-05-07T11:00:24.910Z,29.75
2018-05-07T11:06:29.334Z,29.73
2018-05-07T11:12:34.541Z,30.10
2018-05-07T11:18:38.893Z,30.69
2018-05-07T11:24:44.021Z,31.80
2018-05-07T11:30:48.490Z,32.15
2018-05-07T11:36:52.865Z,32.92
2018-05-07T11:42:57.238Z,32.56
2018-05-07T11:49:01.637Z,31.23
2018-05-07T11:55:05.983Z,32.53
2018-05-07T12:01:10.352Z,33.33
2018-05-07T12:07:15.540Z,33.73
2018-05-07T12:13:20.194Z,35.92
2018-05-07T12:19:24.678Z,36.78
2018-05-07T12:25:29.036Z,37.07
2018-05-07T12:31:33.496Z,37.03
2018-05-07T12:37:37.766Z,37.41
2018-05-07T12:43:42.229Z,38.42
2018-05-07T12:49:46.539Z,37.21
2018-05-07T12:55:51.320Z,36.00
2018-05-07T13:01:55.743Z,35.08
2018-05-07T13:08:00.092Z,36.65
2018-05-07T13:14:04.450Z,38.37
2018-05-07T13:20:08.803Z,39.57
2018-05-07T13:26:13.155Z,39.56
2018-05-07T13:32:17.503Z,39.53
2018-05-07T13:38:22.739Z,40.16
2018-05-07T13:44:27.145Z,41.63
2018-05-07T13:50:31.504Z,38.69
2018-05-07T13:56:35.854Z,39.66
2018-05-07T14:02:40.237Z,38.40
2018-05-07T14:08:44.595Z,39.64
2018-05-07T14:14:49.734Z,41.35
2018-05-07T14:20:54.310Z,41.83
2018-05-07T14:26:59.525Z,41.53
2018-05-07T14:33:03.883Z,41.40
2018-05-07T14:39:08.233Z,40.87
2018-05-07T14:45:12.634Z,42.35
2018-05-07T14:51:16.991Z,42.38
2018-05-07T14:57:21.804Z,42.88
2018-05-07T15:03:26.166Z,43.27
2018-05-07T15:09:30.530Z,43.13
2018-05-07T15:15:34.991Z,43.21
2018-05-07T15:21:39.362Z,43.77
2018-05-07T15:27:43.708Z,44.28
2018-05-07T15:33:48.052Z,43.54
2018-05-07T15:39:52.571Z,44.23
2018-05-07T15:45:56.961Z,43.64
2018-05-07T15:52:01.316Z,43.15
2018-05-07T15:58:05.681Z,43.33
2018-05-07T16:04:10.068Z,43.11
2018-05-07T16:10:14.425Z,43.52
2018-05-07T16:16:19.584Z,43.90
2018-05-07T16:22:24.021Z,44.08
2018-05-07T16:28:28.381Z,44.02
2018-05-07T16:34:32.756Z,43.30
2018-05-07T16:40:37.108Z,42.97
2018-05-07T16:46:41.506Z,40.56
2018-05-07T16:52:45.866Z,39.61
2018-05-07T16:58:50.382Z,39.01
2018-05-07T17:04:54.777Z,39.02
2018-05-07T17:10:59.144Z,38.80
2018-05-07T17:17:03.501Z,38.80
2018-05-07T17:23:07.886Z,37.78
2018-05-07T17:29:12.257Z,37.75
2018-05-07T17:35:16.698Z,37.01
2018-05-07T17:41:21.929Z,37.22
2018-05-07T17:47:43.999Z,36.96
2018-05-07T17:53:48.366Z,36.40
2018-05-07T17:59:53.068Z,36.07
2018-05-07T18:05:57.475Z,35.67
2018-05-07T18:12:01.910Z,34.78
2018-05-07T18:18:06.261Z,33.55
2018-05-07T18:24:11.382Z,31.98
2018-05-07T18:30:15.768Z,30.66
2018-05-07T18:36:20.545Z,27.69
2018-05-07T18:42:25.010Z,25.37
2018-05-07T18:48:29.369Z,23.82
2018-05-07T18:54:34.491Z,22.47
2018-05-07T19:00:38.879Z,21.51
2018-05-07T19:06:43.237Z,21.04
2018-05-07T19:12:47.689Z,20.22
2018-05-07T19:18:52.163Z,19.89
2018-05-07T19:24:57.362Z,19.27
2018-05-07T19:31:01.816Z,19.03
2018-05-07T19:37:06.173Z,18.56
2018-05-07T19:43:10.522Z,18.28
2018-05-07T19:49:14.968Z,17.87
2018-05-07T19:55:21.175Z,17.60
2018-05-07T20:01:25.623Z,17.47
2018-05-07T20:07:30.016Z,17.40
2018-05-07T20:13:34.383Z,17.25
2018-05-07T20:19:38.842Z,17.29
2018-05-07T20:25:43.216Z,17.38
2018-05-07T20:31:47.637Z,16.99
2018-05-07T20:37:52.092Z,16.93
2018-05-07T20:43:56.509Z,16.66
2018-05-07T20:50:00.910Z,16.55
2018-05-07T20:56:06.103Z,16.54
2018-05-07T21:02:10.466Z,16.40
2018-05-07T21:08:14.864Z,16.23
2018-05-07T21:14:19.288Z,15.94
2018-05-07T21:20:23.861Z,15.97
2018-05-07T21:26:29.025Z,15.83
2018-05-07T21:32:33.403Z,15.80
2018-05-07T21:38:37.776Z,15.75
2018-05-07T21:44:42.134Z,15.33
2018-05-07T21:50:46.536Z,15.23
2018-05-07T21:56:51.855Z,15.18
2018-05-07T22:02:56.297Z,15.20
2018-05-07T22:09:00.796Z,15.01
2018-05-07T22:15:05.190Z,14.79
2018-05-07T22:21:09.555Z,14.75
2018-05-07T22:27:14.692Z,14.63
2018-05-07T22:33:20.006Z,14.58
2018-05-07T22:39:25.321Z,14.45
2018-05-07T22:45:30.471Z,14.36
2018-05-07T22:51:34.861Z,14.34
2018-05-07T22:57:39.232Z,14.16
2018-05-07T23:03:44.425Z,14.16
2018-05-07T23:09:48.784Z,14.12
2018-05-07T23:15:53.319Z,14.06
2018-05-07T23:21:58.480Z,14.06
2018-05-07T23:28:02.867Z,13.91
2018-05-07T23:34:07.255Z,14.01
2018-05-07T23:40:11.616Z,14.20
2018-05-07T23:46:15.992Z,14.08
2018-05-07T23:52:20.681Z,14.00
2018-05-07T23:58:25.147Z,13.74
